createdAt,value
2023-01-31T00:01:04.063Z,22.99
2023-01-31T00:06:17.471Z,22.99
2023-01-31T00:11:19.663Z,22.97
2023-01-31T00:16:21.549Z,23.01
2023-01-31T00:21:26.178Z,23.08
2023-01-31T00:26:32.201Z,22.90
2023-01-31T00:31:34.228Z,22.76
2023-01-31T00:36:37.605Z,22.99
2023-01-31T00:41:39.443Z,22.80
2023-01-31T00:46:40.886Z,23.04
2023-01-31T00:51:42.331Z,23.12
2023-01-31T00:56:44.651Z,23.06
2023-01-31T01:01:46.075Z,23.17
2023-01-31T01:06:47.573Z,23.35
2023-01-31T01:11:49.080Z,23.10
2023-01-31T01:16:50.462Z,22.81
2023-01-31T01:21:52.053Z,22.90
2023-01-31T01:26:53.487Z,22.69
2023-01-31T01:31:54.956Z,22.63
2023-01-31T01:36:56.415Z,22.70
2023-01-31T01:41:57.803Z,22.91
2023-01-31T01:46:59.193Z,23.12
2023-01-31T01:52:02.302Z,23.02
2023-01-31T01:57:04.364Z,22.97
2023-01-31T02:02:05.861Z,22.95
2023-01-31T02:07:07.454Z,23.31
2023-01-31T02:12:09.639Z,23.17
2023-01-31T02:17:14.954Z,23.11
2023-01-31T02:22:33.115Z,23.28
2023-01-31T02:27:37.293Z,23.44
2023-01-31T02:32:58.017Z,23.35
2023-01-31T02:38:42.275Z,23.23
2023-01-31T02:44:15.645Z,23.16
2023-01-31T02:49:49.227Z,23.19
2023-01-31T02:55:32.843Z,23.33
2023-01-31T03:00:35.126Z,22.91
2023-01-31T03:05:36.640Z,23.19
2023-01-31T03:10:57.296Z,22.94
2023-01-31T03:16:20.394Z,23.05
2023-01-31T03:21:27.773Z,22.94
2023-01-31T03:26:29.199Z,23.04
2023-01-31T03:31:35.710Z,23.02
2023-01-31T03:36:56.418Z,23.33
2023-01-31T03:42:02.910Z,23.11
2023-01-31T03:47:08.599Z,23.17
2023-01-31T03:52:09.973Z,23.30
2023-01-31T03:57:21.938Z,23.33
2023-01-31T04:02:25.012Z,23.50
2023-01-31T04:07:26.433Z,23.22
2023-01-31T04:12:27.830Z,23.72
2023-01-31T04:17:29.225Z,23.64
2023-01-31T04:22:30.603Z,23.60
2023-01-31T04:27:32.095Z,23.64
2023-01-31T04:32:33.604Z,23.61
2023-01-31T04:37:35.615Z,23.41
2023-01-31T04:42:37.010Z,23.51
2023-01-31T04:47:38.415Z,23.45
2023-01-31T04:52:39.819Z,23.47
2023-01-31T04:57:41.255Z,23.38
2023-01-31T05:02:42.696Z,23.29
2023-01-31T05:07:44.483Z,23.15
2023-01-31T05:12:46.751Z,23.08
2023-01-31T05:17:54.475Z,23.27
2023-01-31T05:22:55.865Z,23.06
2023-01-31T05:27:57.356Z,23.19
2023-01-31T05:32:58.796Z,23.21
2023-01-31T05:38:00.251Z,23.21
2023-01-31T05:43:02.161Z,23.17
2023-01-31T05:48:03.706Z,23.05
2023-01-31T05:53:05.090Z,22.98
2023-01-31T05:58:06.525Z,23.02
2023-01-31T06:03:08.494Z,23.12
2023-01-31T06:08:10.960Z,23.21
2023-01-31T06:13:12.358Z,23.19
2023-01-31T06:18:14.459Z,23.17
2023-01-31T06:23:15.867Z,23.29
2023-01-31T06:28:17.702Z,23.06
2023-01-31T06:33:19.160Z,23.13
2023-01-31T06:38:20.599Z,23.34
2023-01-31T06:43:22.014Z,23.28
2023-01-31T06:48:23.424Z,23.37
2023-01-31T06:53:24.900Z,23.47
2023-01-31T06:58:26.390Z,23.41
2023-01-31T07:03:27.768Z,23.42
2023-01-31T07:08:30.337Z,23.29
2023-01-31T07:13:31.798Z,23.35
2023-01-31T07:18:33.175Z,23.46
2023-01-31T07:23:34.563Z,23.32
2023-01-31T07:28:35.938Z,23.34
2023-01-31T07:33:37.758Z,23.26
2023-01-31T07:38:39.284Z,23.34
2023-01-31T07:43:40.717Z,23.29
2023-01-31T07:48:42.142Z,23.43
2023-01-31T07:53:43.919Z,23.32
2023-01-31T07:58:45.934Z,23.11
2023-01-31T08:03:47.890Z,23.29
2023-01-31T08:08:49.316Z,23.37
2023-01-31T08:13:50.694Z,23.17
2023-01-31T08:18:52.167Z,23.25
2023-01-31T08:23:53.562Z,23.15
2023-01-31T08:28:55.007Z,23.06
2023-01-31T08:33:57.266Z,22.69
2023-01-31T08:38:58.833Z,22.67
2023-01-31T08:44:02.791Z,23.02
2023-01-31T08:49:05.982Z,23.29
2023-01-31T08:54:09.608Z,23.46
2023-01-31T08:59:11.783Z,23.12
2023-01-31T09:04:13.215Z,23.18
2023-01-31T09:09:14.605Z,23.02
2023-01-31T09:14:15.982Z,23.19
2023-01-31T09:19:17.440Z,23.21
2023-01-31T09:24:18.834Z,23.23
2023-01-31T09:29:20.222Z,23.13
2023-01-31T09:34:22.127Z,22.89
2023-01-31T09:39:24.223Z,23.10
2023-01-31T09:44:37.424Z,22.90
2023-01-31T09:49:50.629Z,22.76
2023-01-31T09:54:52.021Z,22.46
2023-01-31T10:00:07.961Z,22.53
2023-01-31T10:05:29.831Z,22.54
2023-01-31T10:10:38.820Z,22.43
2023-01-31T10:15:44.377Z,22.77
2023-01-31T10:20:58.503Z,22.75
2023-01-31T10:26:09.646Z,22.71
2023-01-31T10:31:22.740Z,22.63
2023-01-31T10:36:24.051Z,22.58
2023-01-31T10:41:55.962Z,22.55
2023-01-31T10:46:57.422Z,22.64
2023-01-31T10:52:48.070Z,22.17
2023-01-31T10:57:50.529Z,22.42
2023-01-31T11:02:51.922Z,22.19
2023-01-31T11:07:53.325Z,22.46
2023-01-31T11:13:04.303Z,21.98
2023-01-31T11:18:05.739Z,22.83
2023-01-31T11:23:07.121Z,22.63
2023-01-31T11:28:22.012Z,22.75
2023-01-31T11:33:45.886Z,22.91
2023-01-31T11:38:47.267Z,22.41
2023-01-31T11:43:48.669Z,22.51
2023-01-31T11:48:50.060Z,22.55
2023-01-31T11:53:51.467Z,22.37
2023-01-31T11:58:54.028Z,22.17
2023-01-31T12:04:03.164Z,22.31
2023-01-31T12:09:22.284Z,22.31
2023-01-31T12:14:25.007Z,22.22
2023-01-31T12:19:33.112Z,22.46
2023-01-31T12:24:53.290Z,22.61
2023-01-31T12:30:03.509Z,22.39
2023-01-31T12:35:30.464Z,22.75
2023-01-31T12:40:39.581Z,22.54
2023-01-31T12:46:17.253Z,22.38
2023-01-31T12:51:22.122Z,22.54
2023-01-31T12:56:45.262Z,22.84
2023-01-31T13:02:12.207Z,23.08
2023-01-31T13:07:27.595Z,23.21
2023-01-31T13:12:31.179Z,23.19
2023-01-31T13:17:34.013Z,23.08
2023-01-31T13:22:46.323Z,23.35
2023-01-31T13:27:56.424Z,23.47
2023-01-31T13:32:57.910Z,23.54
2023-01-31T13:38:00.732Z,23.48
2023-01-31T13:43:04.492Z,23.55
2023-01-31T13:48:08.696Z,23.66
2023-01-31T13:53:18.322Z,23.83
2023-01-31T13:58:24.195Z,23.72
2023-01-31T14:03:26.811Z,23.87
2023-01-31T14:08:30.831Z,23.70
2023-01-31T14:13:42.958Z,23.70
2023-01-31T14:18:44.834Z,23.55
2023-01-31T14:23:47.080Z,23.91
2023-01-31T14:28:48.459Z,23.97
2023-01-31T14:33:50.424Z,23.75
2023-01-31T14:39:37.822Z,23.75
2023-01-31T14:44:54.687Z,24.10
2023-01-31T14:50:06.584Z,24.00
2023-01-31T14:55:40.667Z,24.08
2023-01-31T15:00:48.362Z,24.02
2023-01-31T15:05:56.511Z,24.08
2023-01-31T15:11:04.764Z,24.30
2023-01-31T15:16:20.842Z,24.03
2023-01-31T15:21:25.601Z,24.14
2023-01-31T15:26:29.317Z,24.15
2023-01-31T15:31:40.794Z,24.30
2023-01-31T15:36:44.783Z,24.57
2023-01-31T15:41:46.224Z,24.54
2023-01-31T15:46:48.844Z,24.60
2023-01-31T15:52:10.507Z,24.58
2023-01-31T15:57:15.539Z,24.45
2023-01-31T16:02:20.761Z,24.45
2023-01-31T16:07:23.280Z,24.51
2023-01-31T16:12:24.927Z,24.52
2023-01-31T16:17:27.542Z,24.52
2023-01-31T16:22:30.315Z,24.52
2023-01-31T16:27:35.960Z,24.25
2023-01-31T16:32:37.551Z,24.36
2023-01-31T16:37:39.615Z,24.17
2023-01-31T16:42:40.989Z,24.39
2023-01-31T16:47:42.877Z,24.25
2023-01-31T16:52:44.567Z,24.12
2023-01-31T16:57:46.351Z,24.20
2023-01-31T17:02:47.852Z,24.34
2023-01-31T17:07:49.271Z,24.32
2023-01-31T17:12:50.727Z,24.08
2023-01-31T17:17:52.112Z,24.28
2023-01-31T17:23:02.260Z,24.34
2023-01-31T17:28:05.134Z,24.45
2023-01-31T17:33:06.627Z,24.50
2023-01-31T17:38:08.042Z,24.61
2023-01-31T17:43:15.467Z,24.50
2023-01-31T17:48:26.235Z,24.41
2023-01-31T17:53:32.131Z,24.77
2023-01-31T17:58:36.058Z,24.61
2023-01-31T18:03:37.437Z,24.50
2023-01-31T18:08:38.824Z,24.83
2023-01-31T18:13:40.212Z,24.83
2023-01-31T18:18:41.947Z,24.51
2023-01-31T18:23:43.385Z,24.53
2023-01-31T18:28:46.154Z,24.54
2023-01-31T18:33:47.604Z,24.50
2023-01-31T18:38:49.199Z,24.53
2023-01-31T18:43:50.597Z,24.43
2023-01-31T18:48:51.985Z,24.47
2023-01-31T18:53:53.417Z,24.35
2023-01-31T18:58:54.842Z,24.65
2023-01-31T19:03:58.089Z,24.55
2023-01-31T19:08:59.503Z,24.43
2023-01-31T19:14:06.425Z,24.32
2023-01-31T19:19:08.103Z,24.44
2023-01-31T19:24:13.662Z,24.32
2023-01-31T19:29:15.527Z,24.36
2023-01-31T19:34:16.908Z,24.53
2023-01-31T19:39:18.326Z,24.30
2023-01-31T19:44:20.614Z,24.36
2023-01-31T19:49:22.200Z,24.28
2023-01-31T19:54:23.905Z,24.47
2023-01-31T19:59:25.282Z,24.27
2023-01-31T20:04:26.679Z,24.35
2023-01-31T20:09:28.079Z,24.33
2023-01-31T20:14:29.526Z,24.32
2023-01-31T20:19:30.897Z,24.36
2023-01-31T20:24:32.274Z,24.58
2023-01-31T20:29:33.658Z,24.82
2023-01-31T20:34:35.116Z,24.92
2023-01-31T20:39:37.790Z,25.17
2023-01-31T20:44:39.199Z,25.01
2023-01-31T20:49:40.587Z,24.92
2023-01-31T20:54:41.995Z,25.13
2023-01-31T20:59:43.385Z,24.74
2023-01-31T21:04:44.771Z,24.99
2023-01-31T21:09:46.166Z,25.01
2023-01-31T21:14:47.556Z,25.10
2023-01-31T21:19:49.627Z,25.09
2023-01-31T21:24:51.006Z,25.49
2023-01-31T21:29:52.384Z,25.32
2023-01-31T21:34:53.771Z,25.46
2023-01-31T21:39:55.191Z,25.65
2023-01-31T21:44:56.564Z,25.55
2023-01-31T21:49:57.950Z,25.84
2023-01-31T21:54:59.712Z,25.88
2023-01-31T22:00:01.096Z,25.63
2023-01-31T22:05:02.593Z,25.76
2023-01-31T22:10:04.197Z,26.10
2023-01-31T22:15:05.972Z,25.83
2023-01-31T22:20:09.136Z,25.77
2023-01-31T22:25:10.553Z,25.50
2023-01-31T22:30:16.632Z,25.62
2023-01-31T22:35:18.245Z,25.69
2023-01-31T22:40:20.005Z,25.37
2023-01-31T22:45:21.505Z,25.46
2023-01-31T22:50:23.110Z,25.28
2023-01-31T22:55:24.706Z,25.12
2023-01-31T23:00:26.108Z,25.13
2023-01-31T23:05:27.714Z,25.23
2023-01-31T23:10:29.114Z,25.18
2023-01-31T23:15:30.810Z,25.00
2023-01-31T23:20:32.419Z,25.08
2023-01-31T23:25:33.887Z,25.09
2023-01-31T23:30:35.461Z,25.07
2023-01-31T23:35:36.856Z,24.91
2023-01-31T23:40:38.243Z,24.97
2023-01-31T23:45:39.675Z,25.00
2023-01-31T23:50:41.045Z,24.72
2023-01-31T23:55:42.481Z,24.59
